sensor_id;sensor_type;location;lat;lon;timestamp;P1;durP1;ratioP1;P2;durP2;ratioP2
52786;SDS011;38661;53.152;5.846;2023-07-02T00:02:20;22.23;;;9.43;;
52786;SDS011;38661;53.152;5.846;2023-07-02T00:04:46;25.80;;;9.98;;
52786;SDS011;38661;53.152;5.846;2023-07-02T00:07:12;19.48;;;7.88;;
52786;SDS011;38661;53.152;5.846;2023-07-02T00:09:38;21.95;;;9.25;;
52786;SDS011;38661;53.152;5.846;2023-07-02T00:12:04;22.23;;;9.18;;
52786;SDS011;38661;53.152;5.846;2023-07-02T00:14:29;17.88;;;8.57;;
52786;SDS011;38661;53.152;5.846;2023-07-02T00:16:55;24.52;;;8.18;;
52786;SDS011;38661;53.152;5.846;2023-07-02T00:19:21;25.42;;;9.50;;
52786;SDS011;38661;53.152;5.846;2023-07-02T00:21:47;20.35;;;8.82;;
52786;SDS011;38661;53.152;5.846;2023-07-02T00:24:13;21.85;;;8.73;;
52786;SDS011;38661;53.152;5.846;2023-07-02T00:26:39;18.45;;;8.63;;
52786;SDS011;38661;53.152;5.846;2023-07-02T00:29:06;24.73;;;9.27;;
52786;SDS011;38661;53.152;5.846;2023-07-02T00:31:33;25.95;;;9.75;;
52786;SDS011;38661;53.152;5.846;2023-07-02T00:33:59;23.67;;;9.35;;
52786;SDS011;38661;53.152;5.846;2023-07-02T00:36:26;30.67;;;10.02;;
52786;SDS011;38661;53.152;5.846;2023-07-02T00:38:52;21.95;;;9.02;;
52786;SDS011;38661;53.152;5.846;2023-07-02T00:41:18;28.40;;;9.65;;
52786;SDS011;38661;53.152;5.846;2023-07-02T00:43:43;24.88;;;9.65;;
52786;SDS011;38661;53.152;5.846;2023-07-02T00:46:16;25.25;;;9.75;;
52786;SDS011;38661;53.152;5.846;2023-07-02T00:48:46;28.90;;;11.27;;
52786;SDS011;38661;53.152;5.846;2023-07-02T00:51:31;26.98;;;10.07;;
52786;SDS011;38661;53.152;5.846;2023-07-02T00:53:57;29.83;;;10.10;;
52786;SDS011;38661;53.152;5.846;2023-07-02T00:56:24;28.27;;;10.65;;
52786;SDS011;38661;53.152;5.846;2023-07-02T00:58:52;25.52;;;10.45;;
52786;SDS011;38661;53.152;5.846;2023-07-02T01:01:23;23.35;;;10.93;;
52786;SDS011;38661;53.152;5.846;2023-07-02T01:06:27;25.67;;;8.90;;
52786;SDS011;38661;53.152;5.846;2023-07-02T01:08:55;27.20;;;9.55;;
52786;SDS011;38661;53.152;5.846;2023-07-02T01:11:23;24.52;;;9.15;;
52786;SDS011;38661;53.152;5.846;2023-07-02T01:16:33;25.23;;;10.25;;
52786;SDS011;38661;53.152;5.846;2023-07-02T01:19:02;22.27;;;10.30;;
52786;SDS011;38661;53.152;5.846;2023-07-02T01:21:30;23.55;;;10.07;;
52786;SDS011;38661;53.152;5.846;2023-07-02T01:24:00;29.48;;;9.75;;
52786;SDS011;38661;53.152;5.846;2023-07-02T01:26:29;26.88;;;8.73;;
52786;SDS011;38661;53.152;5.846;2023-07-02T01:28:59;23.55;;;9.00;;
52786;SDS011;38661;53.152;5.846;2023-07-02T01:31:25;21.80;;;10.43;;
52786;SDS011;38661;53.152;5.846;2023-07-02T01:33:51;22.30;;;8.98;;
52786;SDS011;38661;53.152;5.846;2023-07-02T01:36:17;26.25;;;9.75;;
52786;SDS011;38661;53.152;5.846;2023-07-02T01:38:43;26.20;;;10.10;;
52786;SDS011;38661;53.152;5.846;2023-07-02T01:41:09;22.27;;;9.68;;
52786;SDS011;38661;53.152;5.846;2023-07-02T01:43:34;21.45;;;8.95;;
52786;SDS011;38661;53.152;5.846;2023-07-02T01:46:00;27.80;;;11.48;;
52786;SDS011;38661;53.152;5.846;2023-07-02T01:48:26;26.70;;;10.35;;
52786;SDS011;38661;53.152;5.846;2023-07-02T01:50:52;26.08;;;8.45;;
52786;SDS011;38661;53.152;5.846;2023-07-02T01:53:18;20.52;;;9.13;;
52786;SDS011;38661;53.152;5.846;2023-07-02T01:55:44;22.15;;;8.63;;
52786;SDS011;38661;53.152;5.846;2023-07-02T01:58:09;19.00;;;8.73;;
52786;SDS011;38661;53.152;5.846;2023-07-02T02:00:35;30.02;;;10.30;;
52786;SDS011;38661;53.152;5.846;2023-07-02T02:03:01;24.88;;;10.65;;
52786;SDS011;38661;53.152;5.846;2023-07-02T02:05:27;27.40;;;10.45;;
52786;SDS011;38661;53.152;5.846;2023-07-02T02:07:53;25.13;;;9.07;;
52786;SDS011;38661;53.152;5.846;2023-07-02T02:10:18;22.58;;;8.98;;
52786;SDS011;38661;53.152;5.846;2023-07-02T02:12:44;25.92;;;10.27;;
52786;SDS011;38661;53.152;5.846;2023-07-02T02:15:10;25.65;;;9.65;;
52786;SDS011;38661;53.152;5.846;2023-07-02T02:17:38;31.00;;;9.40;;
52786;SDS011;38661;53.152;5.846;2023-07-02T02:20:04;26.98;;;10.10;;
52786;SDS011;38661;53.152;5.846;2023-07-02T02:22:31;24.92;;;9.13;;
52786;SDS011;38661;53.152;5.846;2023-07-02T02:24:57;22.15;;;8.07;;
52786;SDS011;38661;53.152;5.846;2023-07-02T02:27:23;26.95;;;10.00;;
52786;SDS011;38661;53.152;5.846;2023-07-02T02:29:48;21.83;;;9.60;;
52786;SDS011;38661;53.152;5.846;2023-07-02T02:32:14;23.52;;;8.77;;
52786;SDS011;38661;53.152;5.846;2023-07-02T02:34:42;22.13;;;9.15;;
52786;SDS011;38661;53.152;5.846;2023-07-02T02:37:08;22.80;;;10.13;;
52786;SDS011;38661;53.152;5.846;2023-07-02T02:39:33;22.95;;;9.57;;
52786;SDS011;38661;53.152;5.846;2023-07-02T02:41:59;27.27;;;10.38;;
52786;SDS011;38661;53.152;5.846;2023-07-02T02:44:25;20.27;;;8.32;;
52786;SDS011;38661;53.152;5.846;2023-07-02T02:46:50;23.45;;;9.15;;
52786;SDS011;38661;53.152;5.846;2023-07-02T02:49:16;23.45;;;9.25;;
52786;SDS011;38661;53.152;5.846;2023-07-02T02:51:42;24.98;;;8.40;;
52786;SDS011;38661;53.152;5.846;2023-07-02T02:54:08;26.85;;;9.82;;
52786;SDS011;38661;53.152;5.846;2023-07-02T02:56:34;20.38;;;9.07;;
52786;SDS011;38661;53.152;5.846;2023-07-02T02:58:59;24.15;;;9.35;;
52786;SDS011;38661;53.152;5.846;2023-07-02T03:01:25;18.80;;;8.18;;
52786;SDS011;38661;53.152;5.846;2023-07-02T03:03:55;23.15;;;8.20;;
52786;SDS011;38661;53.152;5.846;2023-07-02T03:06:20;23.33;;;8.13;;
52786;SDS011;38661;53.152;5.846;2023-07-02T03:08:46;23.10;;;9.15;;
52786;SDS011;38661;53.152;5.846;2023-07-02T03:11:12;22.40;;;7.90;;
52786;SDS011;38661;53.152;5.846;2023-07-02T03:13:37;23.42;;;9.35;;
52786;SDS011;38661;53.152;5.846;2023-07-02T03:16:03;21.50;;;9.32;;
52786;SDS011;38661;53.152;5.846;2023-07-02T03:18:29;24.52;;;8.82;;
52786;SDS011;38661;53.152;5.846;2023-07-02T03:20:55;19.27;;;7.47;;
52786;SDS011;38661;53.152;5.846;2023-07-02T03:23:20;22.55;;;8.38;;
52786;SDS011;38661;53.152;5.846;2023-07-02T03:25:46;22.08;;;8.48;;
52786;SDS011;38661;53.152;5.846;2023-07-02T03:28:12;21.77;;;9.75;;
52786;SDS011;38661;53.152;5.846;2023-07-02T03:30:38;26.20;;;9.50;;
52786;SDS011;38661;53.152;5.846;2023-07-02T03:33:03;26.00;;;9.15;;
52786;SDS011;38661;53.152;5.846;2023-07-02T03:35:29;23.27;;;8.95;;
52786;SDS011;38661;53.152;5.846;2023-07-02T03:37:55;23.05;;;8.55;;
52786;SDS011;38661;53.152;5.846;2023-07-02T03:40:22;21.00;;;8.40;;
52786;SDS011;38661;53.152;5.846;2023-07-02T03:42:48;23.75;;;9.25;;
52786;SDS011;38661;53.152;5.846;2023-07-02T03:45:14;23.50;;;8.75;;
52786;SDS011;38661;53.152;5.846;2023-07-02T03:47:39;24.70;;;9.75;;
52786;SDS011;38661;53.152;5.846;2023-07-02T03:50:05;22.67;;;9.68;;
52786;SDS011;38661;53.152;5.846;2023-07-02T03:52:31;30.05;;;9.23;;
52786;SDS011;38661;53.152;5.846;2023-07-02T03:54:57;25.27;;;9.75;;
52786;SDS011;38661;53.152;5.846;2023-07-02T03:57:23;27.27;;;8.10;;
52786;SDS011;38661;53.152;5.846;2023-07-02T03:59:48;21.02;;;7.20;;
52786;SDS011;38661;53.152;5.846;2023-07-02T04:02:14;22.70;;;7.55;;
52786;SDS011;38661;53.152;5.846;2023-07-02T04:04:40;23.42;;;7.43;;
52786;SDS011;38661;53.152;5.846;2023-07-02T04:07:05;15.82;;;6.65;;
52786;SDS011;38661;53.152;5.846;2023-07-02T04:09:31;18.77;;;6.68;;
52786;SDS011;38661;53.152;5.846;2023-07-02T04:11:58;21.83;;;6.60;;
52786;SDS011;38661;53.152;5.846;2023-07-02T04:14:26;17.88;;;6.97;;
52786;SDS011;38661;53.152;5.846;2023-07-02T04:16:51;20.20;;;6.75;;
52786;SDS011;38661;53.152;5.846;2023-07-02T04:19:17;18.23;;;7.70;;
52786;SDS011;38661;53.152;5.846;2023-07-02T04:21:43;17.40;;;6.93;;
52786;SDS011;38661;53.152;5.846;2023-07-02T04:24:08;15.93;;;6.10;;
52786;SDS011;38661;53.152;5.846;2023-07-02T04:26:34;16.15;;;6.93;;
52786;SDS011;38661;53.152;5.846;2023-07-02T04:29:01;22.42;;;7.20;;
52786;SDS011;38661;53.152;5.846;2023-07-02T04:31:27;18.10;;;6.30;;
52786;SDS011;38661;53.152;5.846;2023-07-02T04:33:53;19.15;;;6.97;;
52786;SDS011;38661;53.152;5.846;2023-07-02T04:36:19;17.80;;;6.35;;
52786;SDS011;38661;53.152;5.846;2023-07-02T04:38:44;18.02;;;5.97;;
52786;SDS011;38661;53.152;5.846;2023-07-02T04:41:10;15.93;;;6.80;;
52786;SDS011;38661;53.152;5.846;2023-07-02T04:43:36;22.35;;;7.20;;
52786;SDS011;38661;53.152;5.846;2023-07-02T04:46:01;19.70;;;6.80;;
52786;SDS011;38661;53.152;5.846;2023-07-02T04:48:28;22.50;;;7.60;;
52786;SDS011;38661;53.152;5.846;2023-07-02T04:50:53;16.08;;;7.20;;
52786;SDS011;38661;53.152;5.846;2023-07-02T04:53:19;17.08;;;6.72;;
52786;SDS011;38661;53.152;5.846;2023-07-02T04:55:45;17.10;;;7.30;;
52786;SDS011;38661;53.152;5.846;2023-07-02T04:58:10;14.02;;;6.05;;
52786;SDS011;38661;53.152;5.846;2023-07-02T05:00:36;19.30;;;8.20;;
52786;SDS011;38661;53.152;5.846;2023-07-02T05:03:02;17.77;;;6.72;;
52786;SDS011;38661;53.152;5.846;2023-07-02T05:05:28;18.42;;;6.80;;
52786;SDS011;38661;53.152;5.846;2023-07-02T05:07:54;20.95;;;7.93;;
52786;SDS011;38661;53.152;5.846;2023-07-02T05:10:20;19.92;;;7.57;;
52786;SDS011;38661;53.152;5.846;2023-07-02T05:12:46;14.75;;;7.13;;
52786;SDS011;38661;53.152;5.846;2023-07-02T05:15:12;16.85;;;6.95;;
52786;SDS011;38661;53.152;5.846;2023-07-02T05:17:37;14.20;;;7.25;;
52786;SDS011;38661;53.152;5.846;2023-07-02T05:20:03;18.05;;;7.80;;
52786;SDS011;38661;53.152;5.846;2023-07-02T05:22:30;18.50;;;6.97;;
52786;SDS011;38661;53.152;5.846;2023-07-02T05:24:55;23.73;;;8.90;;
52786;SDS011;38661;53.152;5.846;2023-07-02T05:27:21;17.48;;;7.35;;
52786;SDS011;38661;53.152;5.846;2023-07-02T05:29:47;16.30;;;7.13;;
52786;SDS011;38661;53.152;5.846;2023-07-02T05:32:12;15.45;;;7.35;;
52786;SDS011;38661;53.152;5.846;2023-07-02T05:34:38;13.07;;;5.38;;
52786;SDS011;38661;53.152;5.846;2023-07-02T05:37:05;16.58;;;5.97;;
52786;SDS011;38661;53.152;5.846;2023-07-02T05:39:31;20.00;;;8.18;;
52786;SDS011;38661;53.152;5.846;2023-07-02T05:41:58;14.93;;;6.18;;
52786;SDS011;38661;53.152;5.846;2023-07-02T05:44:24;19.27;;;7.53;;
52786;SDS011;38661;53.152;5.846;2023-07-02T05:46:49;19.23;;;7.82;;
52786;SDS011;38661;53.152;5.846;2023-07-02T05:49:15;17.90;;;6.90;;
52786;SDS011;38661;53.152;5.846;2023-07-02T05:51:41;13.15;;;6.03;;
52786;SDS011;38661;53.152;5.846;2023-07-02T05:54:06;17.50;;;7.78;;
52786;SDS011;38661;53.152;5.846;2023-07-02T05:56:32;16.33;;;6.45;;
52786;SDS011;38661;53.152;5.846;2023-07-02T05:58:58;14.82;;;5.78;;
52786;SDS011;38661;53.152;5.846;2023-07-02T06:01:24;17.00;;;5.30;;
52786;SDS011;38661;53.152;5.846;2023-07-02T06:03:50;13.68;;;4.68;;
52786;SDS011;38661;53.152;5.846;2023-07-02T06:06:16;18.08;;;5.05;;
52786;SDS011;38661;53.152;5.846;2023-07-02T06:08:41;12.15;;;4.28;;
52786;SDS011;38661;53.152;5.846;2023-07-02T06:11:07;12.98;;;4.10;;
52786;SDS011;38661;53.152;5.846;2023-07-02T06:13:34;10.68;;;3.95;;
52786;SDS011;38661;53.152;5.846;2023-07-02T06:15:59;9.48;;;3.58;;
52786;SDS011;38661;53.152;5.846;2023-07-02T06:18:25;10.65;;;3.92;;
52786;SDS011;38661;53.152;5.846;2023-07-02T06:20:51;9.52;;;3.90;;
52786;SDS011;38661;53.152;5.846;2023-07-02T06:23:17;13.63;;;4.43;;
52786;SDS011;38661;53.152;5.846;2023-07-02T06:25:42;12.82;;;3.90;;
52786;SDS011;38661;53.152;5.846;2023-07-02T06:28:09;15.95;;;5.00;;
52786;SDS011;38661;53.152;5.846;2023-07-02T06:30:35;8.55;;;3.60;;
52786;SDS011;38661;53.152;5.846;2023-07-02T06:33:01;14.05;;;3.80;;
52786;SDS011;38661;53.152;5.846;2023-07-02T06:35:28;10.75;;;4.82;;
52786;SDS011;38661;53.152;5.846;2023-07-02T06:37:54;11.48;;;3.70;;
52786;SDS011;38661;53.152;5.846;2023-07-02T06:40:20;12.93;;;4.13;;
52786;SDS011;38661;53.152;5.846;2023-07-02T06:42:47;17.15;;;4.78;;
52786;SDS011;38661;53.152;5.846;2023-07-02T06:45:13;12.48;;;3.90;;
52786;SDS011;38661;53.152;5.846;2023-07-02T06:47:39;9.27;;;4.18;;
52786;SDS011;38661;53.152;5.846;2023-07-02T06:50:04;10.27;;;3.83;;
52786;SDS011;38661;53.152;5.846;2023-07-02T06:52:30;14.65;;;4.63;;
52786;SDS011;38661;53.152;5.846;2023-07-02T06:54:56;8.90;;;3.90;;
52786;SDS011;38661;53.152;5.846;2023-07-02T06:57:22;12.52;;;4.13;;
52786;SDS011;38661;53.152;5.846;2023-07-02T06:59:48;11.55;;;3.63;;
52786;SDS011;38661;53.152;5.846;2023-07-02T07:02:15;12.52;;;4.93;;
52786;SDS011;38661;53.152;5.846;2023-07-02T07:04:40;10.70;;;4.45;;
52786;SDS011;38661;53.152;5.846;2023-07-02T07:07:06;12.45;;;4.30;;
52786;SDS011;38661;53.152;5.846;2023-07-02T07:09:32;14.98;;;4.35;;
52786;SDS011;38661;53.152;5.846;2023-07-02T07:11:58;11.30;;;4.43;;
52786;SDS011;38661;53.152;5.846;2023-07-02T07:14:23;12.15;;;3.83;;
52786;SDS011;38661;53.152;5.846;2023-07-02T07:16:49;12.45;;;5.28;;
52786;SDS011;38661;53.152;5.846;2023-07-02T07:19:16;11.18;;;4.32;;
52786;SDS011;38661;53.152;5.846;2023-07-02T07:21:43;9.68;;;3.38;;
52786;SDS011;38661;53.152;5.846;2023-07-02T07:24:09;11.95;;;4.18;;
52786;SDS011;38661;53.152;5.846;2023-07-02T07:26:37;10.02;;;3.88;;
52786;SDS011;38661;53.152;5.846;2023-07-02T07:29:04;9.82;;;3.88;;
52786;SDS011;38661;53.152;5.846;2023-07-02T07:31:29;8.40;;;3.45;;
52786;SDS011;38661;53.152;5.846;2023-07-02T07:33:55;9.73;;;4.03;;
52786;SDS011;38661;53.152;5.846;2023-07-02T07:36:21;13.00;;;4.38;;
52786;SDS011;38661;53.152;5.846;2023-07-02T07:38:48;11.15;;;5.00;;
52786;SDS011;38661;53.152;5.846;2023-07-02T07:41:14;11.48;;;4.53;;
52786;SDS011;38661;53.152;5.846;2023-07-02T07:43:39;10.20;;;5.03;;
52786;SDS011;38661;53.152;5.846;2023-07-02T07:46:05;14.80;;;4.45;;
52786;SDS011;38661;53.152;5.846;2023-07-02T07:48:31;14.02;;;5.75;;
52786;SDS011;38661;53.152;5.846;2023-07-02T07:50:56;8.40;;;4.05;;
52786;SDS011;38661;53.152;5.846;2023-07-02T07:53:22;11.32;;;5.05;;
52786;SDS011;38661;53.152;5.846;2023-07-02T07:55:48;10.60;;;4.90;;
52786;SDS011;38661;53.152;5.846;2023-07-02T07:58:13;10.23;;;3.80;;
52786;SDS011;38661;53.152;5.846;2023-07-02T08:00:39;16.40;;;5.53;;
52786;SDS011;38661;53.152;5.846;2023-07-02T08:03:05;12.00;;;4.95;;
52786;SDS011;38661;53.152;5.846;2023-07-02T08:05:31;10.45;;;4.15;;
52786;SDS011;38661;53.152;5.846;2023-07-02T08:07:57;8.80;;;4.10;;
52786;SDS011;38661;53.152;5.846;2023-07-02T08:10:24;11.45;;;4.40;;
52786;SDS011;38661;53.152;5.846;2023-07-02T08:12:50;11.20;;;4.28;;
52786;SDS011;38661;53.152;5.846;2023-07-02T08:15:17;15.30;;;5.20;;
52786;SDS011;38661;53.152;5.846;2023-07-02T08:17:43;10.50;;;3.92;;
52786;SDS011;38661;53.152;5.846;2023-07-02T08:20:09;11.27;;;3.35;;
52786;SDS011;38661;53.152;5.846;2023-07-02T08:22:36;10.38;;;4.25;;
52786;SDS011;38661;53.152;5.846;2023-07-02T08:25:03;12.63;;;4.45;;
52786;SDS011;38661;53.152;5.846;2023-07-02T08:27:29;13.57;;;4.50;;
52786;SDS011;38661;53.152;5.846;2023-07-02T08:29:55;14.25;;;4.80;;
52786;SDS011;38661;53.152;5.846;2023-07-02T08:32:21;16.55;;;4.80;;
52786;SDS011;38661;53.152;5.846;2023-07-02T08:34:48;9.70;;;3.85;;
52786;SDS011;38661;53.152;5.846;2023-07-02T08:37:15;11.40;;;4.53;;
52786;SDS011;38661;53.152;5.846;2023-07-02T08:39:42;13.05;;;4.25;;
52786;SDS011;38661;53.152;5.846;2023-07-02T08:42:08;10.55;;;4.35;;
52786;SDS011;38661;53.152;5.846;2023-07-02T08:44:34;10.88;;;4.90;;
52786;SDS011;38661;53.152;5.846;2023-07-02T08:47:00;12.90;;;4.28;;
52786;SDS011;38661;53.152;5.846;2023-07-02T08:49:26;8.43;;;3.30;;
52786;SDS011;38661;53.152;5.846;2023-07-02T08:51:52;11.75;;;3.92;;
52786;SDS011;38661;53.152;5.846;2023-07-02T08:54:18;11.20;;;4.53;;
52786;SDS011;38661;53.152;5.846;2023-07-02T08:56:45;13.70;;;4.22;;
52786;SDS011;38661;53.152;5.846;2023-07-02T08:59:12;12.93;;;4.32;;
52786;SDS011;38661;53.152;5.846;2023-07-02T09:01:50;8.93;;;4.47;;
52786;SDS011;38661;53.152;5.846;2023-07-02T09:04:18;10.90;;;4.38;;
52786;SDS011;38661;53.152;5.846;2023-07-02T09:07:11;14.63;;;4.57;;
52786;SDS011;38661;53.152;5.846;2023-07-02T09:09:46;11.55;;;4.45;;
52786;SDS011;38661;53.152;5.846;2023-07-02T09:15:00;9.20;;;3.08;;
52786;SDS011;38661;53.152;5.846;2023-07-02T09:17:28;9.32;;;4.28;;
52786;SDS011;38661;53.152;5.846;2023-07-02T09:19:59;10.23;;;3.80;;
52786;SDS011;38661;53.152;5.846;2023-07-02T09:22:26;11.68;;;3.67;;
52786;SDS011;38661;53.152;5.846;2023-07-02T09:24:53;11.10;;;4.05;;
52786;SDS011;38661;53.152;5.846;2023-07-02T09:27:19;9.77;;;3.92;;
52786;SDS011;38661;53.152;5.846;2023-07-02T09:29:50;10.60;;;3.38;;
52786;SDS011;38661;53.152;5.846;2023-07-02T09:32:24;14.40;;;3.78;;
52786;SDS011;38661;53.152;5.846;2023-07-02T09:34:51;8.07;;;3.35;;
52786;SDS011;38661;53.152;5.846;2023-07-02T09:37:19;11.13;;;4.00;;
52786;SDS011;38661;53.152;5.846;2023-07-02T09:39:47;8.30;;;3.50;;
52786;SDS011;38661;53.152;5.846;2023-07-02T09:42:16;13.55;;;3.95;;
52786;SDS011;38661;53.152;5.846;2023-07-02T09:44:44;7.60;;;3.50;;
52786;SDS011;38661;53.152;5.846;2023-07-02T09:47:12;11.93;;;4.60;;
52786;SDS011;38661;53.152;5.846;2023-07-02T09:49:39;11.77;;;4.03;;
52786;SDS011;38661;53.152;5.846;2023-07-02T09:52:11;13.15;;;4.80;;
52786;SDS011;38661;53.152;5.846;2023-07-02T09:54:41;12.02;;;4.40;;
52786;SDS011;38661;53.152;5.846;2023-07-02T09:57:07;10.85;;;3.85;;
52786;SDS011;38661;53.152;5.846;2023-07-02T09:59:33;10.40;;;4.15;;
52786;SDS011;38661;53.152;5.846;2023-07-02T10:01:59;12.13;;;3.85;;
52786;SDS011;38661;53.152;5.846;2023-07-02T10:04:24;7.43;;;3.08;;
52786;SDS011;38661;53.152;5.846;2023-07-02T10:06:51;11.07;;;3.95;;
52786;SDS011;38661;53.152;5.846;2023-07-02T10:09:19;11.63;;;4.85;;
52786;SDS011;38661;53.152;5.846;2023-07-02T10:11:46;8.57;;;3.28;;
52786;SDS011;38661;53.152;5.846;2023-07-02T10:14:12;8.77;;;3.15;;
52786;SDS011;38661;53.152;5.846;2023-07-02T10:16:54;9.07;;;3.38;;
52786;SDS011;38661;53.152;5.846;2023-07-02T10:19:20;12.55;;;4.78;;
52786;SDS011;38661;53.152;5.846;2023-07-02T10:21:47;10.45;;;3.75;;
52786;SDS011;38661;53.152;5.846;2023-07-02T10:24:25;11.73;;;4.07;;
52786;SDS011;38661;53.152;5.846;2023-07-02T10:26:52;10.70;;;3.53;;
52786;SDS011;38661;53.152;5.846;2023-07-02T10:29:25;9.40;;;3.30;;
52786;SDS011;38661;53.152;5.846;2023-07-02T10:31:56;9.40;;;3.78;;
52786;SDS011;38661;53.152;5.846;2023-07-02T10:36:54;11.18;;;3.50;;
52786;SDS011;38661;53.152;5.846;2023-07-02T10:39:20;8.02;;;3.22;;
52786;SDS011;38661;53.152;5.846;2023-07-02T10:41:46;10.63;;;4.22;;
52786;SDS011;38661;53.152;5.846;2023-07-02T10:44:12;11.77;;;4.18;;
52786;SDS011;38661;53.152;5.846;2023-07-02T10:46:44;9.70;;;4.13;;
52786;SDS011;38661;53.152;5.846;2023-07-02T10:49:17;9.10;;;3.47;;
52786;SDS011;38661;53.152;5.846;2023-07-02T10:51:55;13.63;;;3.67;;
52786;SDS011;38661;53.152;5.846;2023-07-02T10:54:39;8.35;;;3.88;;
52786;SDS011;38661;53.152;5.846;2023-07-02T10:57:09;10.60;;;3.50;;
52786;SDS011;38661;53.152;5.846;2023-07-02T10:59:37;7.18;;;2.38;;
52786;SDS011;38661;53.152;5.846;2023-07-02T11:02:03;10.60;;;3.00;;
52786;SDS011;38661;53.152;5.846;2023-07-02T11:04:30;8.50;;;4.28;;
52786;SDS011;38661;53.152;5.846;2023-07-02T11:06:57;8.73;;;3.03;;
52786;SDS011;38661;53.152;5.846;2023-07-02T11:09:26;11.13;;;3.53;;
52786;SDS011;38661;53.152;5.846;2023-07-02T11:11:59;10.38;;;4.53;;
52786;SDS011;38661;53.152;5.846;2023-07-02T11:16:55;10.52;;;3.35;;
52786;SDS011;38661;53.152;5.846;2023-07-02T11:19:22;10.23;;;2.90;;
52786;SDS011;38661;53.152;5.846;2023-07-02T11:21:52;6.03;;;2.33;;
52786;SDS011;38661;53.152;5.846;2023-07-02T11:24:34;9.68;;;3.35;;
52786;SDS011;38661;53.152;5.846;2023-07-02T11:27:01;9.60;;;3.47;;
52786;SDS011;38661;53.152;5.846;2023-07-02T11:29:29;10.23;;;3.00;;
52786;SDS011;38661;53.152;5.846;2023-07-02T11:32:08;8.27;;;2.80;;
52786;SDS011;38661;53.152;5.846;2023-07-02T11:34:35;7.10;;;3.50;;
52786;SDS011;38661;53.152;5.846;2023-07-02T11:37:03;9.80;;;3.00;;
52786;SDS011;38661;53.152;5.846;2023-07-02T11:39:29;6.90;;;2.80;;
52786;SDS011;38661;53.152;5.846;2023-07-02T11:41:56;6.13;;;3.33;;
52786;SDS011;38661;53.152;5.846;2023-07-02T11:44:21;11.18;;;4.00;;
52786;SDS011;38661;53.152;5.846;2023-07-02T11:46:47;10.65;;;4.15;;
52786;SDS011;38661;53.152;5.846;2023-07-02T11:49:13;11.32;;;4.45;;
52786;SDS011;38661;53.152;5.846;2023-07-02T11:51:40;9.52;;;3.55;;
52786;SDS011;38661;53.152;5.846;2023-07-02T11:54:06;6.90;;;3.00;;
52786;SDS011;38661;53.152;5.846;2023-07-02T11:56:32;7.22;;;3.40;;
52786;SDS011;38661;53.152;5.846;2023-07-02T11:58:59;10.50;;;3.50;;
52786;SDS011;38661;53.152;5.846;2023-07-02T12:01:25;13.55;;;3.53;;
52786;SDS011;38661;53.152;5.846;2023-07-02T12:03:50;8.45;;;3.63;;
52786;SDS011;38661;53.152;5.846;2023-07-02T12:06:16;10.15;;;3.88;;
52786;SDS011;38661;53.152;5.846;2023-07-02T12:08:42;12.95;;;4.60;;
52786;SDS011;38661;53.152;5.846;2023-07-02T12:11:08;9.20;;;3.80;;
52786;SDS011;38661;53.152;5.846;2023-07-02T12:13:34;13.88;;;3.90;;
52786;SDS011;38661;53.152;5.846;2023-07-02T12:15:59;10.65;;;3.88;;
52786;SDS011;38661;53.152;5.846;2023-07-02T12:18:29;10.77;;;4.03;;
52786;SDS011;38661;53.152;5.846;2023-07-02T12:20:54;17.13;;;4.72;;
52786;SDS011;38661;53.152;5.846;2023-07-02T12:23:20;9.40;;;4.32;;
52786;SDS011;38661;53.152;5.846;2023-07-02T12:25:46;11.23;;;4.93;;
52786;SDS011;38661;53.152;5.846;2023-07-02T12:28:12;12.13;;;3.80;;
52786;SDS011;38661;53.152;5.846;2023-07-02T12:30:37;12.50;;;4.28;;
52786;SDS011;38661;53.152;5.846;2023-07-02T12:33:03;11.73;;;5.13;;
52786;SDS011;38661;53.152;5.846;2023-07-02T12:35:29;11.27;;;3.85;;
52786;SDS011;38661;53.152;5.846;2023-07-02T12:37:55;10.82;;;4.75;;
52786;SDS011;38661;53.152;5.846;2023-07-02T12:40:20;10.57;;;4.72;;
52786;SDS011;38661;53.152;5.846;2023-07-02T12:42:47;11.85;;;4.82;;
52786;SDS011;38661;53.152;5.846;2023-07-02T12:45:14;10.32;;;5.28;;
52786;SDS011;38661;53.152;5.846;2023-07-02T12:47:41;12.88;;;5.38;;
52786;SDS011;38661;53.152;5.846;2023-07-02T12:50:07;9.07;;;4.15;;
52786;SDS011;38661;53.152;5.846;2023-07-02T12:52:34;10.40;;;4.32;;
52786;SDS011;38661;53.152;5.846;2023-07-02T12:55:00;10.85;;;4.65;;
52786;SDS011;38661;53.152;5.846;2023-07-02T12:57:27;16.38;;;6.05;;
52786;SDS011;38661;53.152;5.846;2023-07-02T12:59:53;12.63;;;5.43;;
52786;SDS011;38661;53.152;5.846;2023-07-02T13:02:20;10.57;;;5.40;;
52786;SDS011;38661;53.152;5.846;2023-07-02T13:04:46;11.50;;;4.72;;
52786;SDS011;38661;53.152;5.846;2023-07-02T13:07:12;11.35;;;4.95;;
52786;SDS011;38661;53.152;5.846;2023-07-02T13:09:37;11.48;;;4.40;;
52786;SDS011;38661;53.152;5.846;2023-07-02T13:12:04;14.13;;;5.15;;
52786;SDS011;38661;53.152;5.846;2023-07-02T13:14:30;10.40;;;4.40;;
52786;SDS011;38661;53.152;5.846;2023-07-02T13:16:56;13.35;;;4.93;;
52786;SDS011;38661;53.152;5.846;2023-07-02T13:19:24;14.52;;;5.47;;
52786;SDS011;38661;53.152;5.846;2023-07-02T13:21:50;12.70;;;4.85;;
52786;SDS011;38661;53.152;5.846;2023-07-02T13:24:15;12.40;;;4.95;;
52786;SDS011;38661;53.152;5.846;2023-07-02T13:26:41;11.32;;;5.20;;
52786;SDS011;38661;53.152;5.846;2023-07-02T13:29:07;19.15;;;5.97;;
52786;SDS011;38661;53.152;5.846;2023-07-02T13:31:32;10.07;;;5.05;;
52786;SDS011;38661;53.152;5.846;2023-07-02T13:33:58;8.52;;;3.67;;
52786;SDS011;38661;53.152;5.846;2023-07-02T13:36:24;10.35;;;5.05;;
52786;SDS011;38661;53.152;5.846;2023-07-02T13:38:49;9.15;;;4.38;;
52786;SDS011;38661;53.152;5.846;2023-07-02T13:41:15;8.95;;;3.88;;
52786;SDS011;38661;53.152;5.846;2023-07-02T13:43:41;12.35;;;5.07;;
52786;SDS011;38661;53.152;5.846;2023-07-02T13:46:07;12.80;;;5.07;;
52786;SDS011;38661;53.152;5.846;2023-07-02T13:48:32;12.02;;;4.80;;
52786;SDS011;38661;53.152;5.846;2023-07-02T13:51:00;12.85;;;4.65;;
52786;SDS011;38661;53.152;5.846;2023-07-02T13:53:25;15.45;;;4.80;;
52786;SDS011;38661;53.152;5.846;2023-07-02T13:55:51;15.48;;;6.07;;
52786;SDS011;38661;53.152;5.846;2023-07-02T13:58:17;14.73;;;6.22;;
52786;SDS011;38661;53.152;5.846;2023-07-02T14:00:42;10.73;;;4.68;;
52786;SDS011;38661;53.152;5.846;2023-07-02T14:03:08;11.05;;;5.38;;
52786;SDS011;38661;53.152;5.846;2023-07-02T14:05:34;8.90;;;5.00;;
52786;SDS011;38661;53.152;5.846;2023-07-02T14:08:00;13.18;;;4.57;;
52786;SDS011;38661;53.152;5.846;2023-07-02T14:10:25;13.45;;;4.57;;
52786;SDS011;38661;53.152;5.846;2023-07-02T14:12:53;7.88;;;4.10;;
52786;SDS011;38661;53.152;5.846;2023-07-02T14:15:19;14.38;;;5.38;;
52786;SDS011;38661;53.152;5.846;2023-07-02T14:17:45;10.07;;;4.15;;
52786;SDS011;38661;53.152;5.846;2023-07-02T14:20:10;13.48;;;4.95;;
52786;SDS011;38661;53.152;5.846;2023-07-02T14:22:36;10.63;;;4.20;;
52786;SDS011;38661;53.152;5.846;2023-07-02T14:25:02;11.50;;;5.13;;
52786;SDS011;38661;53.152;5.846;2023-07-02T14:27:28;9.07;;;4.25;;
52786;SDS011;38661;53.152;5.846;2023-07-02T14:29:54;8.38;;;3.38;;
52786;SDS011;38661;53.152;5.846;2023-07-02T14:32:21;9.45;;;4.13;;
52786;SDS011;38661;53.152;5.846;2023-07-02T14:34:46;10.05;;;4.32;;
52786;SDS011;38661;53.152;5.846;2023-07-02T14:37:12;10.90;;;4.63;;
52786;SDS011;38661;53.152;5.846;2023-07-02T14:39:38;12.73;;;3.92;;
52786;SDS011;38661;53.152;5.846;2023-07-02T14:42:04;13.15;;;4.38;;
52786;SDS011;38661;53.152;5.846;2023-07-02T14:44:31;9.48;;;4.00;;
52786;SDS011;38661;53.152;5.846;2023-07-02T14:46:57;14.07;;;4.25;;